• Join FlightAware (Why Join?)
  • Login
  • US Flag 
02:10AM EST


 

Airport Tracker/Info


-or-


 

Live Flight TrackerFlight Track Log ✈ CSN3624 ✈ 21-May-2013 ✈ ZYHB / HRB - ZGGG / CAN

Flight Track Log - Related Links

Times and Time Zones

All times are in EDT time to prevent confusion due to time zone crossing. See the CSN3624 flight status page for this flight to view local times or setup timezone preferences in your user account.

Time Position Orientation Groundspeed Altitude Reporting Facility
EDT Latitude Longitude Course Direction KTS MPH feet Rate Location/Type
08:29PM 45.5253 126.1707 210° Southwest  Level Estimated
08:30PM 45.4272 126.0914 210° Southwest  Level Estimated
08:31PM 45.3290 126.0123 210° Southwest  Level Estimated
08:32PM 45.2307 125.9335 209° Southwest  Level Estimated
08:33PM 45.1324 125.8550 209° Southwest  Level Estimated
08:34PM 45.0341 125.7768 209° Southwest  Level Estimated
08:35PM 44.9357 125.6988 209° Southwest  Level Estimated
08:36PM 44.8372 125.6211 209° Southwest  Level Estimated
08:37PM 44.7387 125.5437 209° Southwest  Level Estimated
08:38PM 44.6401 125.4665 209° Southwest  Level Estimated
08:39PM 44.5415 125.3896 209° Southwest  Level Estimated
08:40PM 44.4428 125.3129 209° Southwest  Level Estimated
08:41PM 44.3441 125.2365 209° Southwest  Level Estimated
08:42PM 44.2453 125.1604 209° Southwest  Level Estimated
08:43PM 44.1465 125.0845 209° Southwest  Level Estimated
08:44PM 44.0476 125.0089 209° Southwest  Level Estimated
08:45PM 43.9487 124.9335 209° Southwest  Level Estimated
08:46PM 43.8498 124.8584 209° Southwest  Level Estimated
08:47PM 43.7507 124.7835 209° Southwest  Level Estimated
08:48PM 43.6517 124.7088 209° Southwest  Level Estimated
08:49PM 43.5526 124.6345 209° Southwest  Level Estimated
08:50PM 43.4534 124.5603 208° Southwest  Level Estimated
08:51PM 43.3542 124.4864 208° Southwest  Level Estimated
08:52PM 43.2549 124.4128 208° Southwest  Level Estimated
08:53PM 43.1556 124.3393 208° Southwest  Level Estimated
08:54PM 43.0562 124.2662 208° Southwest  Level Estimated
08:55PM 42.9568 124.1932 208° Southwest  Level Estimated
08:56PM 42.8574 124.1205 208° Southwest  Level Estimated
08:57PM 42.7579 124.0480 208° Southwest  Level Estimated
08:58PM 42.6584 123.9758 208° Southwest  Level Estimated
08:59PM 42.5588 123.9038 208° Southwest  Level Estimated
09:00PM 42.4591 123.8320 208° Southwest  Level Estimated
09:01PM 42.3595 123.7605 208° Southwest  Level Estimated
09:02PM 42.2598 123.6891 208° Southwest  Level Estimated
09:03PM 42.1600 123.6180 208° Southwest  Level Estimated
09:04PM 42.0602 123.5471 208° Southwest  Level Estimated
09:05PM 41.9603 123.4765 208° Southwest  Level Estimated
09:06PM 41.8605 123.4061 208° Southwest  Level Estimated
09:07PM 41.7605 123.3359 208° Southwest  Level Estimated
09:08PM 41.6605 123.2659 208° Southwest  Level Estimated
09:09PM 41.5605 123.1961 208° Southwest  Level Estimated
09:10PM 41.4604 123.1265 208° Southwest  Level Estimated
09:11PM 41.3604 123.0572 207° Southwest  Level Estimated
09:12PM 41.2602 122.9881 207° Southwest  Level Estimated
09:13PM 41.1600 122.9191 207° Southwest  Level Estimated
09:14PM 41.0598 122.8504 207° Southwest  Level Estimated
09:15PM 40.9595 122.7819 207° Southwest  Level Estimated
09:16PM 40.8592 122.7136 207° Southwest  Level Estimated
09:17PM 40.7589 122.6455 207° Southwest  Level Estimated
09:18PM 40.6585 122.5777 207° Southwest  Level Estimated
09:19PM 40.5580 122.5100 207° Southwest  Level Estimated
09:20PM 40.4576 122.4425 207° Southwest  Level Estimated
09:21PM 40.3571 122.3752 207° Southwest  Level Estimated
09:22PM 40.2565 122.3082 207° Southwest  Level Estimated
09:23PM 40.1559 122.2413 207° Southwest  Level Estimated
09:24PM 40.0553 122.1746 207° Southwest  Level Estimated
09:25PM 39.9546 122.1081 207° Southwest  Level Estimated
09:26PM 39.8539 122.0418 207° Southwest  Level Estimated
09:27PM 39.7532 121.9757 207° Southwest  Level Estimated
09:28PM 39.6524 121.9098 207° Southwest  Level Estimated
09:29PM 39.5516 121.8441 207° Southwest  Level Estimated
09:30PM 39.4508 121.7786 207° Southwest  Level Estimated
09:31PM 39.3499 121.7133 207° Southwest  Level Estimated
09:32PM 39.2490 121.6481 207° Southwest  Level Estimated
09:33PM 39.1480 121.5832 207° Southwest  Level Estimated
09:34PM 39.0470 121.5184 206° Southwest  Level Estimated
09:35PM 38.9460 121.4538 206° Southwest  Level Estimated
09:36PM 38.8449 121.3894 206° Southwest  Level Estimated
09:37PM 38.7438 121.3252 206° Southwest  Level Estimated
09:38PM 38.6427 121.2612 206° Southwest  Level Estimated
09:39PM 38.5415 121.1973 206° Southwest  Level Estimated
09:39PM 40.3330 116.3210 206° Southwest 395 455 32,100  Level FlightAware
09:40PM 38.4403 121.1337 206° Southwest  Level Estimated
09:40PM 40.2830 116.2390 231° Southwest 397 457 32,100  Level FlightAware
09:40PM 40.2360 116.1630 231° Southwest 396 456 32,100  Level FlightAware
09:41PM 40.1840 116.0790 231° Southwest 398 458 32,100  Level FlightAware
09:42PM 40.1470 116.0180 232° Southwest 398 458 32,100  Level FlightAware
09:43PM 40.0990 115.9380 232° Southwest 398 458 32,100  Level FlightAware
09:43PM 40.0610 115.8730 233° Southwest 398 458 32,100  Level FlightAware
09:44PM 40.0220 115.8090 232° Southwest 398 458 32,100  Level FlightAware
09:45PM 39.9840 115.7450 232° Southwest 398 458 32,100  Level FlightAware
09:45PM 39.8860 115.6270 223° Southwest 406 467 32,100  Level FlightAware
09:46PM 39.8250 115.5430 227° Southwest 406 467 32,100  Level FlightAware
09:47PM 39.7840 115.4870 226° Southwest 406 467 32,100  Level FlightAware
09:48PM 39.7090 115.3810 227° Southwest 406 467 32,100  Level FlightAware
09:48PM 39.6660 115.3200 228° Southwest 406 467 32,100  Level FlightAware
09:49PM 39.6240 115.2580 229° Southwest 406 467 32,100  Level FlightAware
09:50PM 39.5700 115.1810 228° Southwest 406 467 32,100  Level FlightAware
09:50PM 39.5280 115.1190 229° Southwest 406 467 32,100  Level FlightAware
09:51PM 39.4850 115.0580 228° Southwest 406 467 32,100  Level FlightAware
09:52PM 39.4420 114.9960 228° Southwest 406 467 32,100  Level FlightAware
09:52PM 39.3990 114.9350 228° Southwest 406 467 32,100  Level FlightAware
09:53PM 39.3460 114.8580 228° Southwest 406 467 32,100  Level FlightAware
09:54PM 39.3030 114.7970 228° Southwest 406 467 32,100  Level FlightAware
09:55PM 39.2600 114.7360 228° Southwest 406 467 32,100  Level FlightAware
09:55PM 39.2180 114.6740 229° Southwest 406 467 32,100  Level FlightAware
09:56PM 39.1750 114.6130 228° Southwest 406 467 32,100  Level FlightAware
09:57PM 39.1320 114.5520 228° Southwest 406 467 32,100 -159 Level FlightAware
09:59PM 38.9201 114.5318 184° South  Level Estimated
10:00PM 38.8076 114.5212 184° South  Level Estimated
10:01PM 38.6951 114.5106 184° South  Level Estimated
10:02PM 38.5826 114.5000 184° South  Level Estimated
10:03PM 38.4701 114.4894 184° South  Level Estimated
10:04PM 38.3576 114.4789 184° South  Level Estimated
10:05PM 38.2451 114.4684 184° South  Level Estimated
10:06PM 38.1326 114.4579 184° South  Level Estimated
10:07PM 38.0201 114.4475 184° South  Level Estimated
10:08PM 37.9075 114.4371 184° South  Level Estimated
10:09PM 37.7950 114.4268 184° South  Level Estimated
10:10PM 37.6825 114.4164 184° South  Level Estimated
10:11PM 37.5700 114.4061 184° South  Level Estimated
10:12PM 37.4575 114.3959 184° South  Level Estimated
10:13PM 37.3450 114.3856 184° South  Level Estimated
10:14PM 37.2324 114.3754 184° South  Level Estimated
10:15PM 37.1199 114.3652 184° South  Level Estimated
10:16PM 37.0074 114.3551 184° South  Level Estimated
10:17PM 36.8949 114.3450 184° South  Level Estimated
10:18PM 36.7824 114.3349 184° South  Level Estimated
10:19PM 36.6698 114.3248 184° South  Level Estimated
10:20PM 36.5573 114.3148 184° South  Level Estimated
10:21PM 36.4448 114.3048 184° South  Level Estimated
10:22PM 36.3323 114.2948 184° South  Level Estimated
10:23PM 36.2198 114.2849 184° South  Level Estimated
10:24PM 36.1072 114.2750 184° South  Level Estimated
10:25PM 35.9947 114.2651 184° South  Level Estimated
10:26PM 35.8822 114.2552 184° South  Level Estimated
10:27PM 35.7696 114.2454 184° South  Level Estimated
10:28PM 35.6571 114.2356 184° South  Level Estimated
10:29PM 35.5446 114.2258 184° South  Level Estimated
10:30PM 35.4321 114.2161 184° South  Level Estimated
10:31PM 35.3195 114.2064 184° South  Level Estimated
10:32PM 35.2070 114.1967 184° South  Level Estimated
10:33PM 35.0945 114.1870 184° South  Level Estimated
10:34PM 34.9819 114.1774 184° South  Level Estimated
10:35PM 34.8694 114.1677 184° South  Level Estimated
10:36PM 34.7569 114.1582 184° South  Level Estimated
10:37PM 34.6443 114.1486 184° South  Level Estimated
10:38PM 34.5318 114.1391 184° South  Level Estimated
10:39PM 34.4193 114.1296 184° South  Level Estimated
10:40PM 34.3067 114.1201 184° South  Level Estimated
10:41PM 34.1942 114.1106 184° South  Level Estimated
10:42PM 34.0816 114.1012 184° South  Level Estimated
10:43PM 33.9691 114.0918 184° South  Level Estimated
10:44PM 33.8566 114.0824 184° South  Level Estimated
10:45PM 33.7440 114.0731 184° South  Level Estimated
10:46PM 33.6315 114.0637 184° South  Level Estimated
10:47PM 33.5189 114.0544 184° South  Level Estimated
10:48PM 33.4064 114.0451 184° South  Level Estimated
10:49PM 33.2939 114.0359 184° South  Level Estimated
10:50PM 33.1813 114.0266 184° South  Level Estimated
10:51PM 33.0688 114.0174 184° South  Level Estimated
10:52PM 32.9562 114.0082 184° South  Level Estimated
10:53PM 32.8437 113.9991 184° South  Level Estimated
10:54PM 32.7311 113.9899 184° South  Level Estimated
10:55PM 32.6186 113.9808 184° South  Level Estimated
10:56PM 32.5060 113.9717 184° South  Level Estimated
10:57PM 32.3935 113.9626 184° South  Level Estimated
10:58PM 32.2809 113.9536 184° South  Level Estimated
10:59PM 32.1684 113.9446 184° South  Level Estimated
11:00PM 32.0558 113.9355 184° South  Level Estimated
11:01PM 31.9433 113.9266 184° South  Level Estimated
11:02PM 31.8307 113.9176 184° South  Level Estimated
11:03PM 31.7182 113.9087 184° South  Level Estimated
11:04PM 31.6056 113.8997 184° South  Level Estimated
11:05PM 31.4931 113.8908 184° South  Level Estimated
11:06PM 31.3805 113.8820 184° South  Level Estimated
11:07PM 31.2680 113.8731 184° South  Level Estimated
11:08PM 31.1554 113.8643 184° South  Level Estimated
11:09PM 31.0428 113.8555 184° South  Level Estimated
11:10PM 30.9303 113.8467 184° South  Level Estimated
11:11PM 30.8177 113.8379 184° South  Level Estimated
11:12PM 30.7052 113.8292 184° South  Level Estimated
11:13PM 30.5926 113.8204 184° South  Level Estimated
11:14PM 30.4800 113.8117 184° South  Level Estimated
11:15PM 30.3675 113.8030 184° South  Level Estimated
11:16PM 30.2549 113.7944 184° South  Level Estimated
11:17PM 30.1423 113.7857 184° South  Level Estimated
11:18PM 30.0298 113.7771 184° South  Level Estimated
11:19PM 29.9172 113.7685 184° South  Level Estimated
11:20PM 29.8047 113.7599 184° South  Level Estimated
11:21PM 29.6921 113.7513 184° South  Level Estimated
11:22PM 29.5795 113.7428 184° South  Level Estimated
11:23PM 29.4670 113.7343 184° South  Level Estimated
11:24PM 29.3544 113.7257 184° South  Level Estimated
11:25PM 29.2418 113.7172 184° South  Level Estimated
11:26PM 29.1293 113.7088 184° South  Level Estimated
11:27PM 29.0167 113.7003 184° South  Level Estimated
11:28PM 28.9041 113.6919 184° South  Level Estimated
11:29PM 28.7916 113.6834 184° South  Level Estimated
11:30PM 28.6790 113.6750 184° South  Level Estimated
11:31PM 28.5664 113.6666 184° South  Level Estimated
11:32PM 28.4538 113.6583 184° South  Level Estimated
11:33PM 28.3413 113.6499 184° South  Level Estimated
11:34PM 28.2287 113.6416 184° South  Level Estimated
11:35PM 28.1161 113.6333 184° South  Level Estimated
11:36PM 28.0036 113.6250 184° South  Level Estimated
11:37PM 27.8910 113.6167 184° South  Level Estimated
11:38PM 27.7784 113.6085 184° South  Level Estimated
11:39PM 27.6659 113.6002 184° South  Level Estimated
11:40PM 27.5533 113.5920 184° South  Level Estimated
11:41PM 27.4407 113.5838 184° South  Level Estimated
11:42PM 27.3281 113.5756 184° South  Level Estimated
11:43PM 27.2156 113.5674 184° South  Level Estimated
11:44PM 27.1030 113.5592 184° South  Level Estimated
11:45PM 26.9904 113.5511 184° South  Level Estimated
11:46PM 26.8778 113.5430 184° South  Level Estimated
11:47PM 26.7652 113.5349 184° South  Level Estimated
11:48PM 26.6527 113.5267 184° South  Level Estimated
11:49PM 26.5401 113.5187 184° South  Level Estimated
11:50PM 26.4275 113.5106 184° South  Level Estimated
11:51PM 26.3149 113.5026 184° South  Level Estimated
11:52PM 26.2024 113.4945 184° South  Level Estimated
11:53PM 26.0898 113.4865 184° South  Level Estimated
11:54PM 25.9772 113.4785 184° South  Level Estimated
11:55PM 25.8646 113.4705 184° South  Level Estimated
11:56PM 25.7520 113.4625 184° South  Level Estimated
11:57PM 25.6395 113.4546 184° South  Level Estimated
11:58PM 25.5269 113.4466 184° South  Level Estimated
11:59PM 25.4143 113.4387 184° South  Level Estimated
12:00AM 25.3017 113.4308 184° South  Level Estimated
12:01AM 25.1891 113.4229 184° South  Level Estimated
12:02AM 25.0765 113.4150 184° South  Level Estimated
12:03AM 24.9640 113.4072 184° South  Level Estimated
12:04AM 24.8514 113.3993 184° South  Level Estimated
12:04AM 24.4460 113.3420 184° South 305 351 11,800  Level FlightAware
12:05AM 24.7388 113.3915 184° South  Level Estimated
12:05AM 24.3850 113.3620 163° South 309 356 11,800  Level FlightAware
12:05AM 24.3520 113.3850 148° Southeast 322 371 11,800  Level FlightAware
12:05AM 24.3400 113.4130 115° Southeast 333 383 11,800  Level FlightAware
12:06AM 24.3380 113.4680 92° East 336 387 11,800  Level FlightAware
12:07AM 24.3360 113.5400 92° East 336 387 11,800  Level FlightAware
12:07AM 24.3340 113.5980 92° East 336 387 11,800  Level FlightAware
12:09AM 24.1710 113.6760 156° South 300 345 11,800  Level FlightAware
12:10AM 24.1140 113.6830 174° South 296 341 11,800  Level FlightAware
12:11AM 24.0670 113.6890 173° South 296 341 11,800  Level FlightAware
12:11AM 24.0260 113.6320 232° Southwest 280 322 11,800  Level FlightAware
12:12AM 23.9750 113.6130 199° South 280 322 11,800  Level FlightAware
12:13AM 23.9200 113.5920 199° South 279 321 11,800  Level FlightAware
12:13AM 23.8750 113.5680 206° Southwest 274 315 11,800  Level FlightAware
12:14AM 23.8410 113.5300 226° Southwest 244 281 11,800  Level FlightAware
12:15AM 23.8130 113.4960 228° Southwest 210 242 11,800  Level FlightAware
12:15AM 23.7880 113.4600 233° Southwest 199 229 11,800  Level FlightAware
12:16AM 23.7620 113.4240 232° Southwest 198 228 11,800  Level FlightAware
12:17AM 23.7390 113.3920 232° Southwest 200 230 11,800  Level FlightAware
12:17AM 23.7200 113.3580 239° Southwest 191 220 11,800  Level FlightAware
12:18AM 23.6990 113.3210 238° Southwest 193 222 11,800  Level FlightAware
12:19AM 23.6810 113.2880 239° Southwest 194 223 11,800  Level FlightAware
12:20AM 23.6560 113.2530 232° Southwest 195 224 11,800  Level FlightAware
12:20AM 23.6430 113.2490 196° South 198 228 11,800 -436 Level FlightAware
12:21AM 23.6080 113.2380 196° South 190 219 11,400 -825 Descending FlightAware
12:21AM 23.5750 113.2290 194° South 192 221 10,700 -1,059 Descending FlightAware
12:22AM 23.5360 113.2180 194° South 187 215 9,900 -1,100 Descending FlightAware
12:22AM 23.5220 113.2140 195° South 188 216 9,600 -1,050 Descending FlightAware
12:23AM 23.5020 113.2080 195° South 187 215 9,200 -750 Descending FlightAware
12:23AM 23.4890 113.2040 196° South 188 216 9,100 -133 Descending FlightAware
12:23AM 23.4630 113.1990 190° South 195 224 9,100  Level FlightAware
12:24AM 23.4410 113.1940 192° South 193 222 9,100 -218 Level FlightAware
12:24AM 23.4150 113.1880 192° South 191 220 8,900 -873 Descending FlightAware
12:25AM 23.3920 113.1840 189° South 194 223 8,300 -1,200 Descending FlightAware
12:25AM 23.3650 113.1780 192° South 196 226 7,800 -1,200 Descending FlightAware
12:26AM 23.3370 113.1720 191° South 204 235 7,100 -1,091 Descending FlightAware
12:26AM 23.3150 113.1680 189° South 194 223 6,800 -1,309 Descending FlightAware
12:27AM 23.2870 113.1620 191° South 199 229 5,900 -1,527 Descending FlightAware
12:27AM 23.2640 113.1570 191° South 199 229 5,400 -1,200 Descending FlightAware
12:27AM 23.2440 113.1530 190° South 204 235 4,900 -1,333 Descending FlightAware
12:28AM 23.2240 113.1620 158° South 219 252 4,400 -1,029 Descending FlightAware
12:28AM 23.2170 113.1750 120° Southeast 216 249 4,300 -450 Descending FlightAware
12:28AM 23.2110 113.2010 104° East 199 229 4,100 -873 Descending FlightAware
12:29AM 23.2210 113.2270 67° East 199 229 3,500 -1,200 Descending FlightAware
12:29AM 23.2380 113.2450 44° Northeast 194 223 3,000 -1,200 Descending FlightAware
12:30AM 23.2640 113.2530 16° North 186 214 2,400 -1,000 Descending FlightAware
12:30AM 23.2860 113.2590 14° North 159 183 2,000 -764 Descending FlightAware
12:31AM 23.3030 113.2630 12° North 152 175 1,700 -800 Descending FlightAware
12:31AM 23.3170 113.2670 15° North 147 169 1,400 -400 Descending FlightAware
12:32AM 23.3320 113.2710 14° North 147 169 1,400  Level FlightAware
12:34AM 23.3924 113.2988 23° Northeast  Level Estimated